KLM9857 EHAM-EBBR
Flight info
| Callsign | KLM9857 |
|---|---|
| Flight time | 0h 22m |
| Altitude | 12000 |
| Route | WOODY |
| Aircraft | B77W/H-SDE1E2E3FGHIJ2J3J4J5M1RWXY/LB1D1 |
Departure
| Time | 2026-04-18 06:00 |
|---|---|
| Airport | Amsterdam Airport Schiphol (EHAM) |
Arrival
| Time | 2026-04-18 06:22 |
|---|---|
| Airport | Brussels Airport (EBBR) |
| Time | Latitude | Longitude | Altitude | Speed | Heading |
|---|---|---|---|---|---|
| 2026-04-18 05:25 | 52.31003 | 4.77240 | 4 ft | 0 kts | 183° |
| 2026-04-18 05:47 | 52.31009 | 4.77241 | 4 ft | 4 kts | 183° |
| 2026-04-18 05:48 | 52.31036 | 4.77242 | 4 ft | 4 kts | 182° |
| 2026-04-18 05:48 | 52.31059 | 4.77243 | 4 ft | 4 kts | 162° |
| 2026-04-18 05:48 | 52.31075 | 4.77220 | 4 ft | 4 kts | 100° |
| 2026-04-18 05:48 | 52.31077 | 4.77179 | 4 ft | 2 kts | 93° |
| 2026-04-18 05:49 | 52.31077 | 4.77177 | 4 ft | 0 kts | 93° |
| 2026-04-18 05:51 | 52.31077 | 4.77181 | 4 ft | 1 kts | 93° |
| 2026-04-18 05:51 | 52.31076 | 4.77206 | 4 ft | 3 kts | 93° |
| 2026-04-18 05:52 | 52.31074 | 4.77255 | 4 ft | 5 kts | 93° |
| 2026-04-18 05:52 | 52.31072 | 4.77320 | 4 ft | 6 kts | 93° |
| 2026-04-18 05:52 | 52.31069 | 4.77400 | 4 ft | 8 kts | 94° |
| 2026-04-18 05:52 | 52.31051 | 4.77487 | 4 ft | 9 kts | 120° |
| 2026-04-18 05:53 | 52.31044 | 4.77507 | 4 ft | 3 kts | 120° |
| 2026-04-18 05:53 | 52.31012 | 4.77584 | 4 ft | 13 kts | 136° |
| 2026-04-18 05:53 | 52.30897 | 4.77612 | 4 ft | 19 kts | 183° |
| 2026-04-18 05:53 | 52.30770 | 4.77600 | 4 ft | 12 kts | 184° |
| 2026-04-18 05:54 | 52.30729 | 4.77595 | 4 ft | 3 kts | 184° |
| 2026-04-18 05:54 | 52.30703 | 4.77592 | 4 ft | 4 kts | 184° |
| 2026-04-18 05:54 | 52.30693 | 4.77591 | 4 ft | 0 kts | 184° |
| 2026-04-18 05:55 | 52.30691 | 4.77591 | 4 ft | 0 kts | 184° |
| 2026-04-18 05:55 | 52.30689 | 4.77590 | 4 ft | 1 kts | 184° |
| 2026-04-18 05:55 | 52.30678 | 4.77589 | 4 ft | 2 kts | 184° |
| 2026-04-18 05:55 | 52.30658 | 4.77586 | 4 ft | 4 kts | 185° |
| 2026-04-18 05:56 | 52.30630 | 4.77578 | 4 ft | 5 kts | 195° |
| 2026-04-18 05:56 | 52.30598 | 4.77557 | 4 ft | 6 kts | 201° |
| 2026-04-18 05:56 | 52.30585 | 4.77550 | 4 ft | 0 kts | 198° |
| 2026-04-18 05:57 | 52.30572 | 4.77547 | 4 ft | 4 kts | 186° |
| 2026-04-18 05:57 | 52.30532 | 4.77562 | 4 ft | 11 kts | 161° |
| 2026-04-18 05:58 | 52.30446 | 4.77574 | 3 ft | 13 kts | 190° |
| 2026-04-18 05:58 | 52.30365 | 4.77502 | 3 ft | 14 kts | 231° |
| 2026-04-18 05:58 | 52.30339 | 4.77442 | 2 ft | 0 kts | 237° |
| 2026-04-18 05:59 | 52.30339 | 4.77441 | 2 ft | 0 kts | 237° |
| 2026-04-18 05:59 | 52.30338 | 4.77438 | 2 ft | 5 kts | 237° |
| 2026-04-18 05:59 | 52.30169 | 4.77002 | 2 ft | 92 kts | 238° |
| 2026-04-18 05:59 | 52.29685 | 4.75738 | 46 ft | 162 kts | 237° |
| 2026-04-18 06:00 | 52.29089 | 4.74119 | 824 ft | 170 kts | 239° |
| 2026-04-18 06:00 | 52.28495 | 4.72437 | 1869 ft | 169 kts | 241° |
| 2026-04-18 06:00 | 52.27896 | 4.70793 | 2927 ft | 168 kts | 239° |
| 2026-04-18 06:00 | 52.27281 | 4.69186 | 3953 ft | 166 kts | 239° |
| 2026-04-18 06:01 | 52.26638 | 4.67645 | 4940 ft | 169 kts | 225° |
| 2026-04-18 06:01 | 52.25497 | 4.66796 | 5381 ft | 207 kts | 186° |
| 2026-04-18 06:01 | 52.23942 | 4.67497 | 5645 ft | 256 kts | 151° |
| 2026-04-18 06:01 | 52.22462 | 4.69342 | 5955 ft | 270 kts | 144° |
| 2026-04-18 06:02 | 52.20949 | 4.71147 | 6753 ft | 271 kts | 149° |
| 2026-04-18 06:02 | 52.19320 | 4.72768 | 7872 ft | 277 kts | 154° |
| 2026-04-18 06:02 | 52.17614 | 4.74286 | 9035 ft | 281 kts | 155° |
| 2026-04-18 06:02 | 52.15811 | 4.75492 | 10187 ft | 281 kts | 168° |
| 2026-04-18 06:03 | 52.13869 | 4.76238 | 11077 ft | 296 kts | 172° |
| 2026-04-18 06:03 | 52.11740 | 4.76944 | 11461 ft | 329 kts | 172° |
| 2026-04-18 06:03 | 52.09397 | 4.77750 | 11998 ft | 354 kts | 171° |
| 2026-04-18 06:03 | 52.06966 | 4.78647 | 13101 ft | 361 kts | 170° |
| 2026-04-18 06:04 | 52.04525 | 4.79583 | 14488 ft | 359 kts | 170° |
| 2026-04-18 06:04 | 52.02091 | 4.80525 | 15559 ft | 360 kts | 171° |
| 2026-04-18 06:04 | 51.99650 | 4.81211 | 16117 ft | 352 kts | 183° |
| 2026-04-18 06:04 | 51.97277 | 4.80604 | 16158 ft | 344 kts | 204° |
| 2026-04-18 06:05 | 51.95140 | 4.78947 | 16200 ft | 341 kts | 209° |
| 2026-04-18 06:05 | 51.93005 | 4.77221 | 16179 ft | 344 kts | 209° |
| 2026-04-18 06:05 | 51.90861 | 4.75524 | 16182 ft | 343 kts | 208° |
| 2026-04-18 06:05 | 51.88717 | 4.73844 | 16188 ft | 342 kts | 208° |
| 2026-04-18 06:06 | 51.86576 | 4.72169 | 16181 ft | 341 kts | 208° |
| 2026-04-18 06:06 | 51.84469 | 4.70524 | 16180 ft | 341 kts | 208° |
| 2026-04-18 06:06 | 51.82337 | 4.68861 | 16184 ft | 340 kts | 208° |
| 2026-04-18 06:06 | 51.80176 | 4.67177 | 16186 ft | 340 kts | 208° |
| 2026-04-18 06:07 | 51.78074 | 4.65541 | 16187 ft | 340 kts | 208° |
| 2026-04-18 06:07 | 51.77551 | 4.65134 | 16186 ft | 340 kts | 208° |
| 2026-04-18 06:07 | 51.75418 | 4.63475 | 16185 ft | 340 kts | 208° |
| 2026-04-18 06:07 | 51.73290 | 4.61821 | 16182 ft | 337 kts | 208° |
| 2026-04-18 06:08 | 51.71209 | 4.60208 | 16132 ft | 326 kts | 208° |
| 2026-04-18 06:08 | 51.69192 | 4.58645 | 16092 ft | 319 kts | 209° |
| 2026-04-18 06:08 | 51.67198 | 4.57097 | 16097 ft | 319 kts | 209° |
| 2026-04-18 06:08 | 51.65190 | 4.55536 | 16098 ft | 322 kts | 208° |
| 2026-04-18 06:09 | 51.63176 | 4.53976 | 16074 ft | 322 kts | 208° |
| 2026-04-18 06:09 | 51.61134 | 4.52395 | 15708 ft | 329 kts | 208° |
| 2026-04-18 06:09 | 51.59071 | 4.50801 | 15311 ft | 328 kts | 208° |
| 2026-04-18 06:09 | 51.57022 | 4.49221 | 14921 ft | 325 kts | 208° |
| 2026-04-18 06:10 | 51.54994 | 4.47657 | 14532 ft | 322 kts | 208° |
| 2026-04-18 06:10 | 51.52982 | 4.46109 | 14144 ft | 319 kts | 208° |
| 2026-04-18 06:10 | 51.50983 | 4.44573 | 13727 ft | 317 kts | 208° |
| 2026-04-18 06:10 | 51.48999 | 4.43044 | 13278 ft | 315 kts | 208° |
| 2026-04-18 06:11 | 51.47028 | 4.41528 | 12854 ft | 313 kts | 208° |
| 2026-04-18 06:11 | 51.45067 | 4.40042 | 12448 ft | 309 kts | 205° |
| 2026-04-18 06:11 | 51.42970 | 4.39325 | 12008 ft | 313 kts | 182° |
| 2026-04-18 06:11 | 51.40839 | 4.39849 | 11729 ft | 303 kts | 171° |
| 2026-04-18 06:12 | 51.38907 | 4.40868 | 11325 ft | 286 kts | 159° |
| 2026-04-18 06:12 | 51.37163 | 4.42311 | 10711 ft | 279 kts | 154° |
| 2026-04-18 06:12 | 51.35490 | 4.43849 | 10036 ft | 276 kts | 154° |
| 2026-04-18 06:12 | 51.33843 | 4.45377 | 9383 ft | 268 kts | 154° |
| 2026-04-18 06:13 | 51.32278 | 4.46812 | 9109 ft | 252 kts | 154° |
| 2026-04-18 06:13 | 51.30766 | 4.48187 | 8842 ft | 255 kts | 154° |
| 2026-04-18 06:13 | 51.29138 | 4.49636 | 8577 ft | 280 kts | 154° |
| 2026-04-18 06:13 | 51.27391 | 4.51178 | 8279 ft | 291 kts | 154° |
| 2026-04-18 06:14 | 51.25622 | 4.52737 | 8104 ft | 288 kts | 155° |
| 2026-04-18 06:14 | 51.23905 | 4.54244 | 7785 ft | 277 kts | 154° |
| 2026-04-18 06:14 | 51.22217 | 4.55730 | 7259 ft | 274 kts | 154° |
| 2026-04-18 06:14 | 51.20576 | 4.57171 | 6929 ft | 267 kts | 154° |
| 2026-04-18 06:15 | 51.18954 | 4.58594 | 6597 ft | 266 kts | 154° |
| 2026-04-18 06:15 | 51.17333 | 4.60009 | 6295 ft | 265 kts | 154° |
| 2026-04-18 06:15 | 51.15716 | 4.61420 | 5982 ft | 264 kts | 154° |
| 2026-04-18 06:15 | 51.14108 | 4.62822 | 5667 ft | 263 kts | 154° |
| 2026-04-18 06:16 | 51.12502 | 4.64223 | 5368 ft | 263 kts | 154° |
| 2026-04-18 06:16 | 51.10889 | 4.65622 | 4958 ft | 267 kts | 154° |
| 2026-04-18 06:16 | 51.09251 | 4.67039 | 4558 ft | 269 kts | 154° |
| 2026-04-18 06:16 | 51.07613 | 4.68465 | 4233 ft | 268 kts | 154° |
| 2026-04-18 06:17 | 51.05973 | 4.69889 | 3896 ft | 269 kts | 154° |
| 2026-04-18 06:17 | 51.04334 | 4.71308 | 3661 ft | 266 kts | 154° |
| 2026-04-18 06:17 | 51.02733 | 4.72691 | 3519 ft | 259 kts | 153° |
| 2026-04-18 06:17 | 51.01162 | 4.73952 | 3372 ft | 246 kts | 164° |
| 2026-04-18 06:18 | 50.99532 | 4.74106 | 3253 ft | 230 kts | 197° |
| 2026-04-18 06:18 | 50.98214 | 4.72878 | 3136 ft | 218 kts | 230° |
| 2026-04-18 06:18 | 50.97390 | 4.70920 | 2930 ft | 211 kts | 239° |
| 2026-04-18 06:18 | 50.96653 | 4.68924 | 2692 ft | 209 kts | 242° |
| 2026-04-18 06:19 | 50.96033 | 4.66887 | 2440 ft | 207 kts | 245° |
| 2026-04-18 06:19 | 50.95446 | 4.64844 | 2193 ft | 195 kts | 245° |
| 2026-04-18 06:19 | 50.94914 | 4.62989 | 1939 ft | 178 kts | 245° |
| 2026-04-18 06:19 | 50.94419 | 4.61261 | 1685 ft | 165 kts | 245° |
| 2026-04-18 06:20 | 50.93974 | 4.59714 | 1471 ft | 142 kts | 245° |
| 2026-04-18 06:20 | 50.93583 | 4.58361 | 1294 ft | 133 kts | 245° |
| 2026-04-18 06:20 | 50.93192 | 4.57007 | 1111 ft | 135 kts | 245° |
| 2026-04-18 06:20 | 50.92805 | 4.55658 | 935 ft | 134 kts | 245° |
| 2026-04-18 06:21 | 50.92422 | 4.54310 | 754 ft | 135 kts | 243° |
| 2026-04-18 06:21 | 50.92023 | 4.52967 | 573 ft | 136 kts | 244° |
| 2026-04-18 06:21 | 50.91636 | 4.51614 | 394 ft | 133 kts | 244° |
| 2026-04-18 06:21 | 50.91249 | 4.50269 | 209 ft | 135 kts | 244° |
| 2026-04-18 06:22 | 50.90868 | 4.48956 | 122 ft | 121 kts | 245° |
| 2026-04-18 06:22 | 50.90572 | 4.47928 | 122 ft | 81 kts | 245° |
| 2026-04-18 06:22 | 50.90398 | 4.47321 | 125 ft | 50 kts | 245° |
| 2026-04-18 06:22 | 50.90275 | 4.46930 | 130 ft | 31 kts | 234° |
| 2026-04-18 06:23 | 50.90156 | 4.46748 | 130 ft | 13 kts | 216° |
| 2026-04-18 06:23 | 50.90079 | 4.46687 | 136 ft | 10 kts | 177° |
| 2026-04-18 06:23 | 50.90046 | 4.46770 | 130 ft | 10 kts | 76° |
| 2026-04-18 06:23 | 50.90087 | 4.46873 | 131 ft | 12 kts | 63° |
| 2026-04-18 06:24 | 50.90125 | 4.47007 | 126 ft | 15 kts | 64° |
| 2026-04-18 06:24 | 50.90175 | 4.47174 | 129 ft | 18 kts | 65° |
| 2026-04-18 06:24 | 50.90230 | 4.47365 | 124 ft | 20 kts | 65° |
| 2026-04-18 06:24 | 50.90291 | 4.47575 | 122 ft | 21 kts | 65° |
| 2026-04-18 06:25 | 50.90353 | 4.47789 | 122 ft | 21 kts | 65° |
| 2026-04-18 06:25 | 50.90414 | 4.48003 | 121 ft | 21 kts | 65° |
| 2026-04-18 06:25 | 50.90476 | 4.48217 | 121 ft | 21 kts | 65° |
| 2026-04-18 06:25 | 50.90538 | 4.48430 | 122 ft | 21 kts | 65° |
| 2026-04-18 06:26 | 50.90600 | 4.48644 | 121 ft | 21 kts | 65° |
| 2026-04-18 06:26 | 50.90661 | 4.48857 | 121 ft | 21 kts | 65° |
| 2026-04-18 06:26 | 50.90723 | 4.49071 | 121 ft | 21 kts | 65° |
| 2026-04-18 06:26 | 50.90784 | 4.49285 | 122 ft | 21 kts | 65° |
| 2026-04-18 06:27 | 50.90847 | 4.49498 | 128 ft | 21 kts | 65° |
| 2026-04-18 06:27 | 50.90897 | 4.49694 | 126 ft | 15 kts | 89° |
| 2026-04-18 06:27 | 50.90817 | 4.49743 | 129 ft | 15 kts | 197° |
| 2026-04-18 06:27 | 50.90718 | 4.49700 | 124 ft | 15 kts | 194° |
| 2026-04-18 06:28 | 50.90617 | 4.49659 | 129 ft | 15 kts | 194° |
| 2026-04-18 06:28 | 50.90527 | 4.49623 | 127 ft | 12 kts | 194° |
| 2026-04-18 06:28 | 50.90466 | 4.49545 | 130 ft | 12 kts | 243° |
| 2026-04-18 06:28 | 50.90425 | 4.49404 | 126 ft | 16 kts | 245° |
| 2026-04-18 06:29 | 50.90379 | 4.49242 | 125 ft | 16 kts | 245° |
| 2026-04-18 06:29 | 50.90331 | 4.49081 | 125 ft | 16 kts | 245° |
| 2026-04-18 06:29 | 50.90285 | 4.48919 | 129 ft | 16 kts | 245° |
| 2026-04-18 06:29 | 50.90244 | 4.48777 | 124 ft | 9 kts | 245° |
| 2026-04-18 06:30 | 50.90248 | 4.48713 | 128 ft | 4 kts | 318° |
| 2026-04-18 06:30 | 50.90282 | 4.48684 | 122 ft | 1 kts | 334° |
| 2026-04-18 06:30 | 50.90291 | 4.48677 | 126 ft | 1 kts | 335° |
| 2026-04-18 06:30 | 50.90295 | 4.48674 | 122 ft | 0 kts | 335° |